createdAt,value
2023-11-22T00:01:15.653Z,5.3
2023-11-22T00:11:15.949Z,5.2
2023-11-22T00:21:16.059Z,5.1
2023-11-22T00:31:16.291Z,4.9
2023-11-22T00:41:16.485Z,4.8
2023-11-22T00:51:16.628Z,4.5
2023-11-22T01:01:16.943Z,4.4
2023-11-22T01:21:17.284Z,4.1
2023-11-22T01:31:17.489Z,3.9
2023-11-22T01:41:17.677Z,3.7
2023-11-22T01:51:17.855Z,3.6
2023-11-22T02:01:18.131Z,3.5
2023-11-22T02:11:18.286Z,3.3
2023-11-22T02:21:18.466Z,3.2
2023-11-22T02:31:18.724Z,3.1
2023-11-22T02:41:18.882Z,3
2023-11-22T02:51:19.076Z,2.9
2023-11-22T03:01:19.262Z,2.8
2023-11-22T03:11:19.501Z,2.8
2023-11-22T03:21:19.733Z,2.7
2023-11-22T03:31:19.905Z,2.6
2023-11-22T03:41:20.098Z,2.5
2023-11-22T03:51:20.289Z,2.3
2023-11-22T04:01:20.541Z,2.3
2023-11-22T04:11:20.704Z,2.2
2023-11-22T04:41:21.324Z,1.9
2023-11-22T04:51:21.512Z,2
2023-11-22T05:01:23.025Z,2
2023-11-22T05:11:21.920Z,2
2023-11-22T05:21:22.130Z,2
2023-11-22T05:31:22.350Z,2
2023-11-22T05:41:22.538Z,1.9
2023-11-22T05:51:22.804Z,1.9
2023-11-22T06:01:22.925Z,1.7
2023-11-22T06:11:23.149Z,1.6
2023-11-22T06:21:23.392Z,1.5
2023-11-22T06:31:23.540Z,1.4
2023-11-22T06:41:23.760Z,1.2
2023-11-22T06:51:23.941Z,1.3
2023-11-22T07:01:24.167Z,1.4
2023-11-22T07:11:24.396Z,1.3
2023-11-22T07:21:24.577Z,1.2
2023-11-22T07:31:24.767Z,1.3
2023-11-22T07:41:25.057Z,1.4
2023-11-22T08:11:25.605Z,1.3
2023-11-22T08:21:25.798Z,1.5
2023-11-22T08:31:26.040Z,1.7
2023-11-22T08:41:26.194Z,2
2023-11-22T08:51:26.402Z,2.3
2023-11-22T09:01:26.606Z,2.5
2023-11-22T09:11:26.843Z,2.8
2023-11-22T09:21:27.021Z,3.1
2023-11-22T09:31:27.231Z,3.4
2023-11-22T09:41:27.418Z,3.7
2023-11-22T09:51:27.595Z,3.9
2023-11-22T10:01:27.836Z,3.9
2023-11-22T10:11:28.045Z,3.9
2023-11-22T10:21:28.211Z,4
2023-11-22T10:31:28.456Z,4.2
2023-11-22T10:41:28.691Z,4.2
2023-11-22T10:51:28.822Z,4.5
2023-11-22T11:01:29.057Z,4.8
2023-11-22T11:11:29.241Z,4.8
2023-11-22T11:21:29.922Z,4.9
2023-11-22T11:31:29.670Z,5.1
2023-11-22T11:41:29.890Z,5.2
2023-11-22T11:51:30.013Z,5.3
2023-11-22T12:01:30.268Z,5.1
2023-11-22T12:11:30.451Z,5.2
2023-11-22T12:21:30.620Z,5.7
2023-11-22T12:31:30.873Z,6
2023-11-22T12:41:31.006Z,5.7
2023-11-22T12:51:31.211Z,5.4
2023-11-22T13:01:31.445Z,5.6
2023-11-22T13:11:31.646Z,5.8
2023-11-22T13:21:31.801Z,6.1
2023-11-22T13:31:32.099Z,6.1
2023-11-22T13:41:32.219Z,6.1
2023-11-22T13:51:32.411Z,6.1
2023-11-22T14:01:32.633Z,6.1
2023-11-22T14:11:32.844Z,6.2
2023-11-22T14:21:33.007Z,6.1
2023-11-22T14:41:33.440Z,6.1
2023-11-22T15:01:33.990Z,6.1
2023-11-22T15:11:34.094Z,6.1
2023-11-22T15:41:34.647Z,6
2023-11-22T16:01:35.025Z,6
2023-11-22T16:21:35.445Z,5.8
2023-11-22T16:31:35.611Z,5.7
2023-11-22T16:41:35.861Z,5.6
2023-11-22T16:51:36.017Z,5.6
2023-11-22T17:01:36.325Z,5.6
2023-11-22T17:11:36.477Z,5.6
2023-11-22T17:21:36.613Z,5.6
2023-11-22T17:31:36.833Z,5.6
2023-11-22T17:41:37.048Z,5.6
2023-11-22T18:01:37.438Z,5.6
2023-11-22T18:11:37.672Z,5.5
2023-11-22T18:21:37.836Z,5.4
2023-11-22T18:31:38.015Z,5.4
2023-11-22T18:41:38.230Z,5.4
2023-11-22T18:51:38.430Z,5.5
2023-11-22T19:11:38.866Z,5.6
2023-11-22T19:21:39.034Z,5.6
2023-11-22T19:31:39.253Z,5.7
2023-11-22T19:41:39.445Z,5.8
2023-11-22T19:51:39.646Z,5.8
2023-11-22T20:01:39.843Z,5.9
2023-11-22T20:11:40.045Z,5.9
2023-11-22T20:21:40.225Z,5.9
2023-11-22T20:31:40.448Z,5.9
2023-11-22T20:41:40.660Z,5.9
2023-11-22T20:51:40.824Z,5.9
2023-11-22T21:01:41.105Z,5.9
2023-11-22T21:11:41.227Z,5.9
2023-11-22T21:21:41.422Z,6
2023-11-22T21:41:41.827Z,6.2
2023-11-22T21:51:42.044Z,6.2
2023-11-22T22:01:42.270Z,6.2
2023-11-22T22:21:42.719Z,6.2
2023-11-22T22:41:43.080Z,6.4
2023-11-22T23:01:43.611Z,6.4
2023-11-22T23:11:43.702Z,6.2
2023-11-22T23:31:44.091Z,6.4
2023-11-22T23:41:44.232Z,6.5
2023-11-22T23:51:44.425Z,6.6
